Time;durP1;ratioP1;P1;durP2;ratioP2;P2;SDS_P1;SDS_P2;PMS_P1;PMS_P2;Temp;Humidity;BMP_temperature;BMP_pressure;BME280_temperature;BME280_humidity;BME280_pressure;Samples;Min_cycle;Max_cycle;Signal;HPM_P1;HPM_P2
2022/12/17 13:06:37;;;;;;;27.73;26.33;;;;;;;21.57;52.31;100491.16;5074885;28;20048;-63
2022/12/17 13:09:16;;;;;;;21.48;20.13;;;;;;;21.35;51.44;100479.09;5058965;28;20045;-63
2022/12/17 13:11:44;;;;;;;15.95;15.05;;;;;;;20.60;52.11;100473.66;5061987;28;20052;-62
2022/12/17 13:14:22;;;;;;;17.90;16.80;;;;;;;20.63;52.95;100470.13;5069840;28;20168;-62
2022/12/17 13:17:20;;;;;;;16.75;15.65;;;;;;;21.81;50.95;100461.88;5067797;28;20559;-63
2022/12/17 13:19:56;;;;;;;16.70;15.80;;;;;;;21.60;49.93;100481.91;5048046;28;20079;-62
2022/12/17 13:22:23;;;;;;;16.48;15.43;;;;;;;21.50;49.90;100486.06;5057466;28;20410;-63
2022/12/17 13:24:53;;;;;;;16.52;15.45;;;;;;;21.24;49.48;100480.75;5058685;28;20060;-63
2022/12/17 13:27:35;;;;;;;16.23;15.18;;;;;;;20.45;49.88;100479.97;5061956;28;20040;-63
2022/12/17 13:30:17;;;;;;;16.48;15.35;;;;;;;19.82;51.13;100485.66;5063765;28;20040;-62
2022/12/17 13:32:49;;;;;;;17.42;16.45;;;;;;;19.52;51.31;100502.69;5060838;28;20375;-62
2022/12/17 13:35:35;;;;;;;25.90;24.48;;;;;;;19.06;51.25;100493.06;5059590;28;20059;-62
2022/12/17 13:38:23;;;;;;;23.52;22.23;;;;;;;18.87;52.10;100495.47;5061120;28;20067;-62
2022/12/17 13:41:12;;;;;;;16.65;15.40;;;;;;;18.94;52.26;100488.13;5047130;28;20067;-63
2022/12/17 13:43:39;;;;;;;17.45;16.10;;;;;;;18.93;52.99;100505.44;5064776;28;20048;-63
2022/12/17 13:46:06;;;;;;;15.93;14.90;;;;;;;18.78;53.10;100497.50;5069418;28;20075;-63
2022/12/17 13:48:33;;;;;;;16.40;15.27;;;;;;;18.70;53.61;100502.81;5064341;28;20045;-63
2022/12/17 13:51:03;;;;;;;16.77;15.52;;;;;;;18.52;53.77;100489.88;5062937;28;20064;-63
2022/12/17 13:53:34;;;;;;;16.27;15.02;;;;;;;18.56;53.98;100496.50;5070519;28;20083;-62
2022/12/17 13:56:01;;;;;;;15.93;14.88;;;;;;;18.50;53.85;100497.03;5063626;28;20049;-62
2022/12/17 13:58:31;;;;;;;21.15;20.05;;;;;;;18.56;53.98;100496.50;5066026;28;20114;-64
2022/12/17 14:01:07;;;;;;;15.02;14.23;;;;;;;18.50;54.11;100495.06;5068346;28;20058;-63
2022/12/17 14:03:36;;;;;;;16.35;15.45;;;;;;;18.43;54.06;100486.25;5061776;28;20158;-63
2022/12/17 14:06:32;;;;;;;15.63;14.88;;;;;;;18.49;54.07;100496.19;5064038;28;20495;-63
2022/12/17 14:09:01;;;;;;;16.00;15.00;;;;;;;18.42;53.76;100496.69;5063538;28;20054;-63
2022/12/17 14:14:27;;;;;;;15.95;14.82;;;;;;;18.28;53.50;100495.22;5063866;28;20053;-63
2022/12/17 14:16:54;;;;;;;16.15;15.20;;;;;;;18.11;53.70;100487.59;5068725;28;20060;-62
2022/12/17 14:19:23;;;;;;;21.38;20.20;;;;;;;18.05;53.94;100484.13;5065908;28;20095;-62
2022/12/17 14:21:50;;;;;;;16.15;15.23;;;;;;;18.13;54.33;100500.22;5065385;28;20044;-64
2022/12/17 14:24:22;;;;;;;21.55;20.05;;;;;;;18.18;54.43;100491.56;5064729;28;20088;-62
2022/12/17 14:26:51;;;;;;;16.05;15.25;;;;;;;18.21;54.15;100475.94;5057523;28;20053;-62
2022/12/17 14:29:26;;;;;;;16.10;15.23;;;;;;;17.97;54.11;100490.59;5070005;28;20072;-63
2022/12/17 14:32:02;;;;;;;16.77;15.68;;;;;;;17.82;54.43;100500.38;5062856;28;20467;-62
2022/12/17 14:34:40;;;;;;;16.67;15.50;;;;;;;17.54;54.67;100502.66;5064376;28;20060;-62
2022/12/17 14:37:18;;;;;;;16.95;15.75;;;;;;;17.44;55.16;100500.13;5058292;28;20049;-63
2022/12/17 14:39:47;;;;;;;17.65;16.60;;;;;;;17.36;55.14;100489.63;5064343;28;20486;-64
2022/12/17 14:42:31;;;;;;;16.40;15.60;;;;;;;17.36;55.39;100503.75;5069111;28;20056;-62
2022/12/17 14:45:20;;;;;;;15.98;15.18;;;;;;;17.30;55.52;100503.06;5063618;28;20055;-63
2022/12/17 14:48:05;;;;;;;26.38;25.17;;;;;;;17.16;56.04;100500.38;5062287;28;21551;-62
2022/12/17 14:50:35;;;;;;;16.65;15.50;;;;;;;17.12;55.79;100510.63;5058776;28;20879;-63
2022/12/17 14:53:22;;;;;;;15.98;14.93;;;;;;;17.08;56.55;100515.25;5059630;28;20041;-63
2022/12/17 14:55:56;;;;;;;15.98;15.07;;;;;;;17.11;56.51;100513.78;5063421;28;20052;-62
2022/12/17 14:58:24;;;;;;;17.85;16.63;;;;;;;17.17;56.48;100513.31;5067216;28;20099;-63
2022/12/17 15:00:58;;;;;;;15.48;14.40;;;;;;;17.15;56.58;100509.97;5061863;28;20084;-62
2022/12/17 15:03:28;;;;;;;17.05;16.02;;;;;;;17.16;56.82;100511.66;5058757;28;20655;-61
2022/12/17 15:06:07;;;;;;;30.83;29.38;;;;;;;17.13;57.01;100505.81;5060564;28;20159;-61
2022/12/17 15:08:38;;;;;;;17.60;16.60;;;;;;;17.22;56.86;100504.69;5063908;28;20044;-62
2022/12/17 15:11:06;;;;;;;15.80;14.90;;;;;;;17.28;56.89;100514.69;5059073;28;20057;-62
2022/12/17 15:13:33;;;;;;;21.20;20.05;;;;;;;17.16;56.62;100528.59;5067302;28;20416;-62
2022/12/17 15:16:00;;;;;;;21.52;20.42;;;;;;;16.91;56.59;100509.53;5060848;28;20048;-62
2022/12/17 15:18:26;;;;;;;16.98;15.85;;;;;;;16.76;56.83;100516.44;5071677;28;20045;-62
2022/12/17 15:20:53;;;;;;;16.95;16.00;;;;;;;16.64;57.39;100511.34;5066204;28;20045;-62
2022/12/17 15:23:22;;;;;;;16.65;15.55;;;;;;;16.52;57.43;100502.66;5062790;28;20503;-61
2022/12/17 15:25:51;;;;;;;17.55;16.42;;;;;;;16.44;57.96;100494.97;5070227;28;20044;-62
2022/12/17 15:28:19;;;;;;;20.10;19.00;;;;;;;16.44;58.04;100506.25;5065975;28;20468;-61
2022/12/17 15:30:47;;;;;;;16.77;15.60;;;;;;;16.43;58.14;100510.22;5071431;28;20056;-62
2022/12/17 15:33:14;;;;;;;17.48;16.20;;;;;;;16.33;58.57;100520.59;5072451;28;20059;-62
2022/12/17 15:35:42;;;;;;;17.15;16.08;;;;;;;16.34;58.53;100527.91;5063415;28;20070;-61
2022/12/17 15:38:10;;;;;;;18.08;16.80;;;;;;;16.33;58.56;100523.41;5066171;28;20048;-62
2022/12/17 15:40:38;;;;;;;27.45;26.15;;;;;;;16.29;58.60;100524.38;5070863;28;20560;-62
2022/12/17 15:43:10;;;;;;;23.67;22.20;;;;;;;16.25;58.30;100527.00;5067329;28;20055;-62
2022/12/17 15:45:48;;;;;;;17.30;16.40;;;;;;;16.16;57.82;100526.09;5055500;28;20049;-61
2022/12/17 15:48:18;;;;;;;17.08;16.15;;;;;;;16.08;57.82;100527.69;5067987;28;20037;-61
2022/12/17 15:50:45;;;;;;;17.30;15.93;;;;;;;16.02;58.46;100539.38;5066902;28;20044;-62
2022/12/17 15:53:12;;;;;;;16.73;15.82;;;;;;;15.95;58.38;100547.44;5058196;28;20052;-62
2022/12/17 15:55:39;;;;;;;16.75;15.65;;;;;;;15.83;58.32;100536.75;5067951;28;20052;-62
2022/12/17 15:58:09;;;;;;;17.10;16.20;;;;;;;15.79;58.54;100535.69;5060569;28;20506;-62
2022/12/17 16:00:36;;;;;;;25.13;23.90;;;;;;;15.66;58.87;100531.78;5058021;28;20514;-62
2022/12/17 16:03:03;;;;;;;15.82;15.02;;;;;;;15.63;59.03;100533.19;5072090;28;20045;-62
2022/12/17 16:05:30;;;;;;;16.75;15.48;;;;;;;15.57;59.51;100544.88;5067315;28;20059;-62
2022/12/17 16:08:00;;;;;;;17.73;16.45;;;;;;;15.45;59.80;100542.56;5057669;28;20048;-61
2022/12/17 16:10:28;;;;;;;17.40;16.20;;;;;;;15.50;60.08;100555.72;5066409;28;20392;-62
2022/12/17 16:12:55;;;;;;;17.02;16.13;;;;;;;15.53;60.66;100555.94;5048506;28;20067;-62
2022/12/17 16:15:22;;;;;;;19.58;18.10;;;;;;;15.49;60.66;100557.72;5034509;28;20059;-62
2022/12/17 16:17:49;;;;;;;18.48;17.23;;;;;;;15.46;60.93;100540.63;5070204;28;20044;-61
2022/12/17 16:20:16;;;;;;;17.98;16.98;;;;;;;15.46;60.80;100552.72;5067714;28;20520;-61
2022/12/17 16:22:43;;;;;;;17.98;16.77;;;;;;;15.37;61.58;100541.34;5058307;28;20407;-62
2022/12/17 16:25:10;;;;;;;33.38;31.42;;;;;;;15.40;61.81;100551.97;5059159;28;20407;-62
2022/12/17 16:27:37;;;;;;;16.48;15.57;;;;;;;15.47;61.92;100561.97;5069643;28;20433;-62
2022/12/17 16:30:04;;;;;;;16.27;15.40;;;;;;;15.41;62.54;100552.78;5065569;28;20045;-62
2022/12/17 16:32:32;;;;;;;25.27;23.67;;;;;;;15.43;63.03;100567.41;5054466;28;20055;-62
2022/12/17 16:35:03;;;;;;;17.65;16.35;;;;;;;15.36;63.35;100570.63;5062144;28;20045;-62
2022/12/17 16:37:30;;;;;;;17.60;16.30;;;;;;;15.23;63.42;100559.38;5058756;28;20061;-62
2022/12/17 16:39:57;;;;;;;19.90;18.73;;;;;;;15.27;63.69;100571.66;5071668;28;20041;-62
2022/12/17 16:42:26;;;;;;;17.42;16.38;;;;;;;15.17;64.06;100569.88;5059717;28;20048;-61
2022/12/17 16:44:53;;;;;;;17.27;15.88;;;;;;;15.07;64.88;100570.06;5059603;28;20044;-61
2022/12/17 16:47:20;;;;;;;15.30;14.50;;;;;;;14.96;64.96;100566.63;5063510;28;20127;-62
2022/12/17 16:49:49;;;;;;;17.70;16.50;;;;;;;14.95;65.20;100566.94;5070669;28;20045;-62
2022/12/17 16:52:16;;;;;;;28.38;26.80;;;;;;;14.89;65.57;100577.44;5057770;28;20052;-63
2022/12/17 16:54:43;;;;;;;26.48;24.60;;;;;;;14.87;65.62;100586.19;5063274;28;20383;-62
2022/12/17 16:57:10;;;;;;;16.23;15.32;;;;;;;14.86;65.26;100586.50;5050241;28;20048;-61
2022/12/17 16:59:36;;;;;;;16.30;15.50;;;;;;;14.80;65.55;100588.59;5068638;28;20048;-62
2022/12/17 17:02:04;;;;;;;15.00;14.02;;;;;;;14.81;65.68;100590.25;5067718;28;20048;-62
2022/12/17 17:04:31;;;;;;;16.48;15.30;;;;;;;14.69;66.36;100581.44;5061137;28;20148;-63
2022/12/17 17:06:57;;;;;;;16.10;15.20;;;;;;;14.64;66.20;100581.56;5061473;28;20040;-62
2022/12/17 17:09:25;;;;;;;27.10;25.70;;;;;;;14.52;66.13;100570.78;5061463;28;20041;-63
2022/12/17 17:11:55;;;;;;;15.88;14.85;;;;;;;14.62;66.29;100581.84;5064604;28;20052;-62
2022/12/17 17:14:22;;;;;;;16.58;15.43;;;;;;;14.55;66.95;100586.19;5058005;28;20397;-62
2022/12/17 17:16:50;;;;;;;27.38;25.58;;;;;;;14.41;67.04;100572.88;5061979;28;20479;-63
2022/12/17 17:19:17;;;;;;;15.60;14.60;;;;;;;14.45;67.91;100593.59;5067694;28;20052;-62
2022/12/17 17:21:50;;;;;;;16.65;15.43;;;;;;;14.36;68.15;100589.84;5065591;28;20052;-63
2022/12/17 17:24:19;;;;;;;16.95;15.85;;;;;;;14.32;68.63;100580.31;5066052;28;20087;-62
2022/12/17 17:26:50;;;;;;;17.17;15.93;;;;;;;14.31;68.45;100580.66;5044982;28;20044;-61
2022/12/17 17:29:18;;;;;;;;;;;;;;;14.02;69.87;100597.63;5064586;28;20041;-61
2022/12/17 17:31:44;;;;;;;23.20;21.65;;;;;;;14.18;69.47;100596.28;5034110;28;19921;-62
2022/12/17 17:34:31;;;;;;;16.43;15.23;;;;;;;14.13;69.38;100587.94;5061634;28;20098;-63
2022/12/17 17:36:58;;;;;;;25.70;23.80;;;;;;;14.14;69.62;100586.78;5070272;28;20045;-62
2022/12/17 17:39:26;;;;;;;16.65;15.23;;;;;;;14.15;69.68;100588.47;5070267;28;20048;-62
2022/12/17 17:41:52;;;;;;;17.65;16.33;;;;;;;14.17;69.86;100600.25;5066818;28;20050;-62
2022/12/17 17:44:19;;;;;;;17.80;16.67;;;;;;;14.06;69.93;100590.31;5059770;28;20049;-61
2022/12/17 17:46:46;;;;;;;18.52;16.70;;;;;;;14.06;70.16;100604.34;5057344;28;20075;-62
2022/12/17 17:49:13;;;;;;;24.93;18.23;;;;;;;14.04;70.55;100603.78;5064376;28;20076;-62
2022/12/17 17:51:42;;;;;;;17.70;16.33;;;;;;;14.10;70.39;100611.00;5039724;28;20530;-63
2022/12/17 17:54:29;;;;;;;18.60;16.75;;;;;;;14.04;70.43;100603.78;5064319;28;20453;-62
2022/12/17 17:56:55;;;;;;;29.27;27.13;;;;;;;13.97;70.83;100605.00;5067592;28;20053;-62
2022/12/17 17:59:22;;;;;;;17.97;16.53;;;;;;;14.04;70.52;100610.25;5052914;28;20045;-62
2022/12/17 18:01:56;;;;;;;30.13;28.23;;;;;;;13.99;70.55;100613.97;5058445;28;20088;-62
2022/12/17 18:04:23;;;;;;;28.27;26.27;;;;;;;13.99;70.91;100624.38;5053584;28;20063;-63
2022/12/17 18:06:51;;;;;;;18.83;17.07;;;;;;;13.93;71.14;100620.78;5055300;28;20054;-62
2022/12/17 18:09:38;;;;;;;22.27;20.87;;;;;;;13.90;71.18;100627.00;5062388;28;20483;-63
2022/12/17 18:13:53;;;;;;;16.57;15.57;;;;;;;13.77;71.25;100610.88;5062207;28;20045;-61
2022/12/17 18:14:52;;;;;;;18.13;16.63;;;;;;;13.81;71.18;100620.41;5065466;28;20047;-62
2022/12/17 18:17:38;;;;;;;18.13;16.70;;;;;;;13.81;71.44;100648.47;5062250;28;20094;-63
2022/12/17 18:20:06;;;;;;;18.43;17.03;;;;;;;13.66;71.67;100621.41;5057124;28;20049;-62
2022/12/17 18:22:33;;;;;;;30.50;28.37;;;;;;;13.79;71.72;100650.72;5057862;28;20044;-61
2022/12/17 18:25:00;;;;;;;17.93;16.47;;;;;;;13.76;71.63;100654.13;5062869;28;20131;-62
2022/12/17 18:27:26;;;;;;;16.67;15.57;;;;;;;13.76;71.76;100665.34;5054220;28;20048;-62
2022/12/17 18:29:53;;;;;;;26.03;24.50;;;;;;;13.76;71.68;100665.34;5048165;28;20037;-62
2022/12/17 18:32:21;;;;;;;18.70;16.80;;;;;;;13.74;71.52;100668.47;5058142;28;20479;-61
2022/12/17 18:34:48;;;;;;;17.73;16.43;;;;;;;13.78;71.43;100673.47;5063265;28;20435;-62
2022/12/17 18:37:14;;;;;;;23.33;21.70;;;;;;;13.76;71.53;100682.19;5048232;28;20139;-62
2022/12/17 18:39:41;;;;;;;17.07;15.97;;;;;;;13.75;71.55;100686.16;5073584;28;20052;-61
2022/12/17 18:44:53;;;;;;;17.37;16.17;;;;;;;13.66;71.84;100699.16;5075527;28;20056;-62
2022/12/17 18:47:21;;;;;;;17.23;15.83;;;;;;;13.66;71.75;100705.59;5068009;28;20092;-62
2022/12/17 18:49:48;;;;;;;18.03;16.63;;;;;;;13.68;71.91;100706.16;5063347;28;20044;-61
2022/12/17 18:52:15;;;;;;;19.30;17.67;;;;;;;13.68;71.77;100708.13;5070843;28;20052;-62
2022/12/17 18:54:43;;;;;;;29.13;26.97;;;;;;;13.68;71.91;100705.31;5066648;28;20392;-62
2022/12/17 18:57:10;;;;;;;18.17;16.77;;;;;;;13.65;71.75;100715.16;5065141;28;20067;-63
2022/12/17 18:59:39;;;;;;;28.07;26.20;;;;;;;13.62;71.62;100720.53;5060767;28;20422;-62
2022/12/17 19:02:13;;;;;;;20.50;18.77;;;;;;;13.54;71.92;100707.13;5061595;28;20483;-61
2022/12/17 19:04:40;;;;;;;18.33;16.73;;;;;;;13.55;72.15;100726.50;5063516;28;20049;-61
2022/12/17 19:07:07;;;;;;;19.40;17.43;;;;;;;13.59;72.13;100729.53;5040249;28;20041;-61
2022/12/17 19:09:35;;;;;;;19.53;18.23;;;;;;;13.48;72.27;100715.63;5069846;28;20049;-61
2022/12/17 19:12:04;;;;;;;19.93;18.33;;;;;;;13.52;72.28;100722.31;5051874;28;20131;-62
2022/12/17 19:14:32;;;;;;;21.73;19.50;;;;;;;13.47;72.66;100722.38;5065409;28;20052;-62
2022/12/17 19:16:59;;;;;;;19.67;18.07;;;;;;;13.38;72.93;100726.09;5060440;28;20660;-62
2022/12/17 19:19:26;;;;;;;30.83;28.80;;;;;;;13.37;73.01;100735.66;5054029;28;20049;-62
2022/12/17 19:21:54;;;;;;;18.23;16.87;;;;;;;13.36;73.13;100729.19;5063037;28;20056;-62
2022/12/17 19:24:22;;;;;;;21.57;19.53;;;;;;;13.30;73.17;100716.38;5066218;28;20090;-62
2022/12/17 19:26:49;;;;;;;21.13;19.43;;;;;;;13.34;73.42;100731.47;5063281;28;20079;-61
2022/12/17 19:29:17;;;;;;;26.10;24.20;;;;;;;13.31;73.41;100732.06;5056218;28;20479;-62
2022/12/17 19:31:44;;;;;;;19.10;17.80;;;;;;;13.28;73.50;100741.06;5062539;28;20047;-62
2022/12/17 19:34:13;;;;;;;20.97;19.30;;;;;;;13.23;73.84;100746.66;5064473;28;20048;-62
2022/12/17 19:36:41;;;;;;;19.57;18.07;;;;;;;13.14;74.27;100749.28;5065024;28;20380;-62
2022/12/17 19:39:11;;;;;;;20.30;18.43;;;;;;;12.98;74.58;100751.34;5070471;28;20043;-62
2022/12/17 19:41:38;;;;;;;19.95;18.25;;;;;;;12.92;75.02;100755.34;5063377;28;20399;-62
2022/12/17 19:44:10;;;;;;;20.87;18.93;;;;;;;12.92;75.14;100763.75;5067863;28;20052;-61
2022/12/17 19:46:37;;;;;;;29.67;27.50;;;;;;;12.84;75.35;100757.91;5058058;28;20492;-62
2022/12/17 19:49:04;;;;;;;19.23;17.93;;;;;;;12.77;75.79;100756.28;5062305;28;20041;-62
2022/12/17 19:51:32;;;;;;;18.57;17.20;;;;;;;12.73;75.98;100759.97;5055298;28;20049;-62
2022/12/17 19:53:59;;;;;;;19.00;17.83;;;;;;;12.71;76.12;100767.81;5057097;28;20045;-62
2022/12/17 19:56:34;;;;;;;20.80;18.90;;;;;;;12.69;76.02;100770.06;5059050;28;20052;-62
2022/12/17 19:59:05;;;;;;;27.87;25.93;;;;;;;12.66;76.20;100767.84;5070263;28;20547;-62
2022/12/17 20:01:36;;;;;;;23.07;21.00;;;;;;;12.60;76.40;100777.41;5065885;28;20135;-62
2022/12/17 20:04:04;;;;;;;32.27;29.57;;;;;;;12.63;76.48;100779.63;5055153;28;20095;-62
2022/12/17 20:06:33;;;;;;;25.53;23.20;;;;;;;12.63;76.37;100783.25;5070748;28;20057;-62
2022/12/17 20:09:03;;;;;;;22.13;20.13;;;;;;;12.61;76.63;100776.28;5053215;28;20048;-63
2022/12/17 20:11:33;;;;;;;38.90;35.67;;;;;;;12.55;76.66;100775.47;5058504;28;20048;-62
2022/12/17 20:14:20;;;;;;;24.57;22.20;;;;;;;12.51;76.84;100778.03;5068726;28;20558;-63
2022/12/17 20:16:50;;;;;;;23.10;21.20;;;;;;;12.41;77.29;100777.19;5061742;28;20056;-62
2022/12/17 20:19:19;;;;;;;25.05;22.50;;;;;;;12.35;77.51;100781.19;5071046;28;20133;-62
2022/12/17 20:21:47;;;;;;;26.25;23.65;;;;;;;12.32;77.66;100776.97;5060455;28;20045;-63
2022/12/17 20:24:15;;;;;;;34.37;31.63;;;;;;;12.34;77.67;100785.91;5071130;28;20079;-62
2022/12/17 20:26:43;;;;;;;22.73;20.60;;;;;;;12.30;77.59;100773.63;5065897;28;20058;-63
2022/12/17 20:29:10;;;;;;;19.27;17.27;;;;;;;12.32;77.86;100791.81;5043693;28;20045;-61
2022/12/17 20:31:39;;;;;;;18.47;17.23;;;;;;;12.30;77.99;100780.06;5063075;28;20112;-63
2022/12/17 20:34:13;;;;;;;20.63;18.87;;;;;;;12.28;78.23;100770.28;5054656;28;20052;-62
2022/12/17 20:36:40;;;;;;;17.67;16.38;;;;;;;12.11;78.40;100761.41;5060688;28;20044;-62
2022/12/17 20:39:08;;;;;;;21.40;19.60;;;;;;;12.16;78.71;100770.59;5058046;28;20408;-61
2022/12/17 20:41:35;;;;;;;28.80;24.50;;;;;;;12.18;78.80;100773.97;5069196;28;20049;-62
2022/12/17 20:44:04;;;;;;;22.23;20.40;;;;;;;12.15;78.86;100759.69;5058820;28;20056;-61
2022/12/17 20:46:32;;;;;;;19.08;17.85;;;;;;;11.99;79.33;100751.34;5061065;28;20090;-64
2022/12/17 20:48:59;;;;;;;21.80;19.80;;;;;;;11.97;79.45;100773.19;5065948;28;20420;-62
2022/12/17 20:51:28;;;;;;;19.47;17.80;;;;;;;11.98;79.53;100763.66;5062264;28;20045;-62
2022/12/17 20:53:57;;;;;;;26.77;22.87;;;;;;;11.97;79.64;100764.81;5059369;28;20063;-62
2022/12/17 20:56:26;;;;;;;19.45;17.92;;;;;;;11.85;80.01;100755.88;5071418;28;20052;-62
2022/12/17 20:58:59;;;;;;;23.35;21.52;;;;;;;11.84;80.14;100762.59;5051823;28;20048;-62
2022/12/17 21:01:27;;;;;;;20.63;18.97;;;;;;;11.85;80.05;100767.91;5060832;28;20564;-62
2022/12/17 21:03:56;;;;;;;21.07;19.10;;;;;;;11.87;80.46;100773.22;5049868;28;20548;-62
2022/12/17 21:06:37;;;;;;;22.30;17.37;;;;;;;11.84;80.23;100762.59;5060806;28;20059;-62
2022/12/17 21:09:05;;;;;;;22.77;20.47;;;;;;;11.88;80.32;100760.91;5061407;28;20413;-63
2022/12/17 21:11:34;;;;;;;19.97;18.40;;;;;;;11.93;80.16;100758.09;5060867;28;20053;-62
2022/12/17 21:14:10;;;;;;;28.10;25.60;;;;;;;11.74;80.51;100734.63;5053859;28;20064;-62
2022/12/17 21:16:38;;;;;;;23.60;21.67;;;;;;;11.92;80.24;100755.56;5064734;28;20400;-62
2022/12/17 21:19:07;;;;;;;19.20;17.77;;;;;;;11.86;80.18;100757.53;5052135;28;20049;-62
2022/12/17 21:21:36;;;;;;;18.53;17.23;;;;;;;11.85;79.91;100755.88;5060677;28;20058;-62
2022/12/17 21:24:04;;;;;;;23.45;21.23;;;;;;;11.88;80.15;100758.09;5064227;28;20476;-62
2022/12/17 21:26:37;;;;;;;20.63;19.17;;;;;;;11.85;80.14;100755.88;5058690;28;20065;-62
2022/12/17 21:29:06;;;;;;;19.97;18.57;;;;;;;11.79;80.32;100756.97;5063907;28;20059;-61
2022/12/17 21:31:36;;;;;;;23.07;20.93;;;;;;;11.76;80.48;100763.13;5057010;28;20384;-63
2022/12/17 21:34:05;;;;;;;24.40;22.13;;;;;;;11.82;80.22;100753.59;5069030;28;20056;-63
2022/12/17 21:36:33;;;;;;;21.30;19.43;;;;;;;11.82;80.48;100762.00;5071332;28;20044;-62
2022/12/17 21:39:03;;;;;;;21.07;19.27;;;;;;;11.79;80.71;100751.38;5052705;28;20503;-62
2022/12/17 21:41:37;;;;;;;24.73;22.87;;;;;;;11.86;80.42;100751.94;5061590;28;20049;-62
2022/12/17 21:44:07;;;;;;;31.73;29.13;;;;;;;11.90;80.18;100758.66;5064371;28;20458;-62
2022/12/17 21:46:34;;;;;;;17.90;16.70;;;;;;;11.87;80.30;100758.41;5062812;28;20062;-63
2022/12/17 21:49:03;;;;;;;21.27;19.33;;;;;;;11.90;80.15;100741.00;5071500;28;20052;-63
2022/12/17 21:51:31;;;;;;;18.85;17.40;;;;;;;11.76;80.41;100747.22;5054720;28;20045;-61
2022/12/17 21:54:01;;;;;;;19.17;17.73;;;;;;;11.77;80.60;100753.63;5053517;28;20068;-63
2022/12/17 21:56:34;;;;;;;17.73;16.43;;;;;;;11.78;80.44;100755.31;5061222;28;20486;-63
2022/12/17 21:59:01;;;;;;;18.80;17.43;;;;;;;11.77;80.63;100753.63;5053743;28;20494;-63
2022/12/17 22:01:32;;;;;;;21.23;19.13;;;;;;;11.71;80.63;100754.75;5070307;28;20047;-62
2022/12/17 22:04:02;;;;;;;20.37;18.73;;;;;;;11.65;80.55;100744.69;5067895;28;20049;-62
2022/12/17 22:06:31;;;;;;;18.23;16.80;;;;;;;11.71;80.53;100746.38;5073514;28;20056;-62
2022/12/17 22:09:08;;;;;;;18.20;17.00;;;;;;;11.69;80.90;100762.59;5063178;28;20045;-62
2022/12/17 22:14:01;;;;;;;20.57;18.77;;;;;;;11.66;80.81;100751.97;5065912;28;20102;-62
2022/12/17 22:14:41;;;;;;;17.87;16.60;;;;;;;11.55;80.99;100739.97;5069845;28;20060;-62
2022/12/17 22:17:08;;;;;;;18.07;16.77;;;;;;;11.54;80.94;100735.50;5073478;28;20052;-62
2022/12/17 22:19:35;;;;;;;28.00;26.30;;;;;;;11.61;80.92;100744.44;5074278;28;20490;-62
2022/12/17 22:22:02;;;;;;;23.33;20.77;;;;;;;11.66;80.57;100757.56;5066506;28;20431;-61
2022/12/17 22:24:29;;;;;;;35.17;33.23;;;;;;;11.62;80.56;100741.38;5067767;28;20048;-61
2022/12/17 22:27:01;;;;;;;17.83;16.43;;;;;;;11.71;80.59;100754.75;5071137;28;20490;-61
2022/12/17 22:35:00;;;;;;;17.87;16.77;;;;;;;11.62;80.68;100758.16;5056058;28;20045;-61
2022/12/17 22:37:47;;;;;;;18.40;16.97;;;;;;;11.60;80.81;100760.38;5059490;28;20074;-61
2022/12/17 22:40:36;;;;;;;20.20;18.53;;;;;;;11.59;80.59;100758.72;5069005;28;20406;-62
2022/12/17 22:43:28;;;;;;;19.87;18.23;;;;;;;11.56;80.83;100767.66;5059677;28;20048;-62
2022/12/17 22:46:15;;;;;;;18.70;17.30;;;;;;;11.54;80.48;100758.69;5051238;28;20057;-62
2022/12/17 22:48:42;;;;;;;20.37;18.90;;;;;;;11.60;80.43;100776.31;5045247;28;20114;-62
2022/12/17 22:51:10;;;;;;;18.63;17.23;;;;;;;11.36;80.45;100736.94;5063562;28;20447;-62
2022/12/17 22:53:46;;;;;;;18.93;17.33;;;;;;;11.48;80.58;100771.00;5066985;28;20132;-62
2022/12/17 22:56:14;;;;;;;19.67;18.33;;;;;;;11.44;80.69;100755.09;5064261;28;20049;-62
2022/12/17 22:59:00;;;;;;;18.97;17.60;;;;;;;11.33;81.09;100757.91;5066268;28;20102;-62
2022/12/17 23:01:28;;;;;;;19.30;17.67;;;;;;;11.27;81.45;100760.97;5068844;28;20048;-62
2022/12/17 23:03:56;;;;;;;19.43;17.87;;;;;;;11.22;81.64;100761.81;5074419;28;20071;-62
2022/12/17 23:06:24;;;;;;;20.93;19.23;;;;;;;11.24;81.42;100755.94;5073992;28;20048;-62
2022/12/17 23:08:51;;;;;;;17.47;16.17;;;;;;;11.13;81.52;100747.56;5057451;28;20060;-62
2022/12/17 23:11:21;;;;;;;17.70;16.57;;;;;;;11.20;81.54;100754.81;5071250;28;20075;-62
2022/12/17 23:13:49;;;;;;;23.17;21.85;;;;;;;11.18;81.60;100751.47;5062406;28;20056;-62
2022/12/17 23:16:16;;;;;;;19.53;17.90;;;;;;;11.21;81.51;100762.09;5046496;28;20049;-61
2022/12/17 23:18:45;;;;;;;29.93;28.23;;;;;;;11.20;81.40;100761.25;5053342;28;20075;-62
2022/12/17 23:21:16;;;;;;;16.90;15.80;;;;;;;11.17;81.39;100747.00;5065903;28;20056;-61
2022/12/17 23:23:43;;;;;;;16.83;15.87;;;;;;;11.26;81.33;100762.09;5071427;28;20511;-63
2022/12/17 23:26:13;;;;;;;17.63;16.37;;;;;;;11.21;81.22;100750.91;5072071;28;22267;-62
2022/12/17 23:28:41;;;;;;;17.87;16.77;;;;;;;11.27;81.02;100760.97;5069232;28;20063;-62
2022/12/17 23:31:15;;;;;;;19.17;16.97;;;;;;;11.34;80.97;100751.16;5070511;28;20120;-62
2022/12/17 23:33:42;;;;;;;15.83;14.67;;;;;;;11.32;80.83;100749.78;5062665;28;20056;-62
2022/12/17 23:36:15;;;;;;;17.80;16.70;;;;;;;11.26;80.79;100742.53;5070084;28;20040;-62
2022/12/17 23:38:42;;;;;;;18.43;17.33;;;;;;;11.27;81.02;100752.59;5054094;28;20048;-62
2022/12/17 23:41:18;;;;;;;16.60;15.60;;;;;;;11.19;80.90;100737.22;5070588;28;20100;-61
2022/12/17 23:43:45;;;;;;;16.00;15.10;;;;;;;11.26;80.95;100742.53;5064342;28;20056;-62
2022/12/17 23:46:12;;;;;;;26.67;24.77;;;;;;;11.26;80.95;100736.94;5060570;28;20060;-62
2022/12/17 23:48:42;;;;;;;17.77;16.50;;;;;;;11.26;80.82;100721.00;5061468;28;20041;-62
2022/12/17 23:51:13;;;;;;;18.03;16.57;;;;;;;11.15;81.15;100714.59;5070454;28;20423;-62
2022/12/17 23:53:40;;;;;;;17.30;15.90;;;;;;;11.22;80.88;100693.91;5065571;28;20095;-62
2022/12/17 23:56:18;;;;;;;16.53;15.43;;;;;;;11.32;80.77;100707.88;5055096;28;20056;-63
2022/12/17 23:58:46;;;;;;;16.13;15.23;;;;;;;11.40;80.36;100707.28;5054187;28;20049;-63
